Norwegian Breakaway — C6ZJ3 — position and weather

sailwx.info

Track history (hours):
 
Tides and Currents Weather Stations Pressure Air Temp Water Temp Dewpoint Dewpoint Depression Visibility Wind Speed Wind Dir Waves Ship Positions

Norwegian Breakaway

Last reported at 2019-Jun-16 22:51 UTC. Time now 2019-Jun-17 19:35 UTC.
Position N 26°04' W 079°26'.

Length 325 m; draft 8.6 m.

Type: Passenger vessel. MMSI: 311050800.

Date/timePositionNaut miles runAvg speedWind from/ knotsBaromVisibWave heightAir tempDewpointWater temp
2019-Jun-16 22:51N 26°04' W 079°26'720.2
2019-Jun-16 22:30N 26°01' W 079°33'1020.9
2019-Jun-16 22:00N 25°56' W 079°43'1121.7
2019-Jun-16 21:30N 25°51' W 079°54'1019.6
2019-Jun-16 21:00N 25°47' W 080°04'5 9.5
2019-Jun-16 20:30N 25°46' W 080°09'1 2.8
2019-Jun-16 19:58N 25°47' W 080°10'5941149.5
2019-Jun-16 19:27N 18°44' W 087°41'5941230.1
2019-Jun-16 18:58N 25°47' W 080°10'0 0.0
2019-Jun-16 18:28N 25°47' W 080°10'0 0.0
2019-Jun-16 17:58N 25°47' W 080°10'0 0.0
2019-Jun-16 17:30N 25°47' W 080°10'0 0.0
2019-Jun-16 17:00N 25°47' W 080°10'0 0.0
2019-Jun-16 16:30N 25°47' W 080°10'0 0.0
2019-Jun-16 16:00N 25°47' W 080°10'0 0.0
2019-Jun-16 15:30N 25°47' W 080°10'0 0.0
2019-Jun-16 15:00N 25°47' W 080°10'0 0.0
2019-Jun-16 14:30N 25°47' W 080°10'0 0.0
2019-Jun-16 14:00N 25°47' W 080°10'0 0.0
2019-Jun-16 13:30N 25°47' W 080°10'0 0.0
2019-Jun-16 13:00N 25°47' W 080°10'0 0.0
2019-Jun-16 12:30N 25°47' W 080°10'0 0.0
2019-Jun-16 12:00N 25°47' W 080°10'0 0.0
2019-Jun-16 11:30N 25°47' W 080°10'0 0.0
2019-Jun-16 11:00N 25°47' W 080°10'0 0.0
2019-Jun-16 10:30N 25°47' W 080°10'0 0.9
2019-Jun-16 10:00N 25°47' W 080°11'4 7.7
2019-Jun-16 09:30N 25°45' W 080°07'611.7
2019-Jun-16 09:01N 25°47' W 080°01'5 9.7
2019-Jun-16 08:30N 25°44' W 079°56'713.2
2019-Jun-16 08:00N 25°38' W 079°56'713.2
2019-Jun-16 07:31N 25°31' W 079°56'713.4
2019-Jun-16 07:01N 25°25' W 079°56'713.8
2019-Jun-16 06:30N 25°18' W 079°58'713.9
2019-Jun-16 06:00N 25°11' W 080°01'713.9
2019-Jun-16 05:29N 25°05' W 080°04'46715.3
2019-Jun-14 22:53N 20°34' W 086°57'3 7.8
2019-Jun-14 22:29N 20°31' W 086°57'0 0.0
2019-Jun-14 21:59N 20°31' W 086°57'0 0.0
2019-Jun-14 21:29N 20°31' W 086°57'0 0.0
2019-Jun-14 20:59N 20°31' W 086°57'0 0.0
2019-Jun-14 20:29N 20°31' W 086°57'  
2019-Jun-10 02:53N 24°25' W 080°13'7114.4
2019-Jun-09 21:56N 25°34' W 079°52'716.9
2019-Jun-09 21:31N 25°39' W 079°57'917.2
2019-Jun-09 21:01N 25°46' W 080°03'510.3
2019-Jun-09 20:30N 25°46' W 080°09'1 2.4
2019-Jun-09 19:59N 25°47' W 080°10'0 0.0
2019-Jun-09 19:29N 25°47' W 080°10'0 0.0
2019-Jun-09 18:59N 25°47' W 080°10'0 0.0
2019-Jun-09 18:29N 25°47' W 080°10'0 0.0
2019-Jun-09 17:59N 25°47' W 080°10'0 0.0
2019-Jun-09 17:29N 25°47' W 080°10'0 0.0
2019-Jun-09 16:59N 25°47' W 080°10'0 0.0
2019-Jun-09 16:29N 25°47' W 080°10'0 0.0
2019-Jun-09 15:59N 25°47' W 080°10'0 0.0
2019-Jun-09 15:29N 25°47' W 080°10'0 0.0
2019-Jun-09 14:59N 25°47' W 080°10'0 0.0
2019-Jun-09 14:29N 25°47' W 080°10'0 0.0
2019-Jun-09 13:59N 25°47' W 080°10'0 0.0
2019-Jun-09 13:29N 25°47' W 080°10'0 0.0
2019-Jun-09 12:59N 25°47' W 080°10'0 0.0
2019-Jun-09 12:29N 25°47' W 080°10'0 0.0
2019-Jun-09 11:59N 25°47' W 080°10'2849.6
2019-Jun-09 11:25N 25°22' W 079°56'2864.3
2019-Jun-09 10:59N 25°47' W 080°10'0 0.0
2019-Jun-09 10:30N 25°47' W 080°10'1 1.1
2019-Jun-09 10:00N 25°47' W 080°11'3 6.7
2019-Jun-09 09:30N 25°46' W 080°08'612.4
2019-Jun-09 09:00N 25°47' W 080°01'5 9.5
2019-Jun-09 08:30N 25°49' W 079°56'611.4
2019-Jun-09 08:00N 25°52' W 079°50'611.3
2019-Jun-09 07:30N 25°54' W 079°45'611.2
2019-Jun-09 07:00N 25°57' W 079°40'611.3
2019-Jun-09 06:30N 25°60' W 079°34'611.2
2019-Jun-09 06:00N 26°03' W 079°29'611.3
2019-Jun-09 05:30N 26°06' W 079°23'611.3
2019-Jun-09 05:00N 26°08' W 079°18'1111.4
2019-Jun-09 04:00N 26°12' W 079°06'611.8
2019-Jun-09 03:29N 26°11' W 078°59'82916.2
2019-Jun-07 00:11N 19°47' W 065°41'2920.8
2019-Jun-06 22:47N 19°31' W 065°15'  
Track history (hours):
 
Tides and Currents Weather Stations Pressure Air Temp Water Temp Dewpoint Dewpoint Depression Visibility Wind Speed Wind Dir Waves Ship Positions

Norwegian Breakaway

Last reported at 2019-Jun-16 22:51 UTC. Time now 2019-Jun-17 19:35 UTC.
Position N 26°04' W 079°26'.

Length 325 m; draft 8.6 m.

Type: Passenger vessel. MMSI: 311050800.

Date/timePositionNaut miles runAvg speedWind from/ knotsBaromVisibWave heightAir tempDewpointWater temp
2019-Jun-16 22:51N 26°04' W 079°26'720.2
2019-Jun-16 22:30N 26°01' W 079°33'1020.9
2019-Jun-16 22:00N 25°56' W 079°43'1121.7
2019-Jun-16 21:30N 25°51' W 079°54'1019.6
2019-Jun-16 21:00N 25°47' W 080°04'5 9.5
2019-Jun-16 20:30N 25°46' W 080°09'1 2.8
2019-Jun-16 19:58N 25°47' W 080°10'5941149.5
2019-Jun-16 19:27N 18°44' W 087°41'5941230.1
2019-Jun-16 18:58N 25°47' W 080°10'0 0.0
2019-Jun-16 18:28N 25°47' W 080°10'0 0.0
2019-Jun-16 17:58N 25°47' W 080°10'0 0.0
2019-Jun-16 17:30N 25°47' W 080°10'0 0.0
2019-Jun-16 17:00N 25°47' W 080°10'0 0.0
2019-Jun-16 16:30N 25°47' W 080°10'0 0.0
2019-Jun-16 16:00N 25°47' W 080°10'0 0.0
2019-Jun-16 15:30N 25°47' W 080°10'0 0.0
2019-Jun-16 15:00N 25°47' W 080°10'0 0.0
2019-Jun-16 14:30N 25°47' W 080°10'0 0.0
2019-Jun-16 14:00N 25°47' W 080°10'0 0.0
2019-Jun-16 13:30N 25°47' W 080°10'0 0.0
2019-Jun-16 13:00N 25°47' W 080°10'0 0.0
2019-Jun-16 12:30N 25°47' W 080°10'0 0.0
2019-Jun-16 12:00N 25°47' W 080°10'0 0.0
2019-Jun-16 11:30N 25°47' W 080°10'0 0.0
2019-Jun-16 11:00N 25°47' W 080°10'0 0.0
2019-Jun-16 10:30N 25°47' W 080°10'0 0.9
2019-Jun-16 10:00N 25°47' W 080°11'4 7.7
2019-Jun-16 09:30N 25°45' W 080°07'611.7
2019-Jun-16 09:01N 25°47' W 080°01'5 9.7
2019-Jun-16 08:30N 25°44' W 079°56'713.2
2019-Jun-16 08:00N 25°38' W 079°56'713.2
2019-Jun-16 07:31N 25°31' W 079°56'713.4
2019-Jun-16 07:01N 25°25' W 079°56'713.8
2019-Jun-16 06:30N 25°18' W 079°58'713.9
2019-Jun-16 06:00N 25°11' W 080°01'713.9
2019-Jun-16 05:29N 25°05' W 080°04'46715.3
2019-Jun-14 22:53N 20°34' W 086°57'3 7.8
2019-Jun-14 22:29N 20°31' W 086°57'0 0.0
2019-Jun-14 21:59N 20°31' W 086°57'0 0.0
2019-Jun-14 21:29N 20°31' W 086°57'0 0.0
2019-Jun-14 20:59N 20°31' W 086°57'0 0.0
2019-Jun-14 20:29N 20°31' W 086°57'  
2019-Jun-10 02:53N 24°25' W 080°13'7114.4
2019-Jun-09 21:56N 25°34' W 079°52'716.9
2019-Jun-09 21:31N 25°39' W 079°57'917.2
2019-Jun-09 21:01N 25°46' W 080°03'510.3
2019-Jun-09 20:30N 25°46' W 080°09'1 2.4
2019-Jun-09 19:59N 25°47' W 080°10'0 0.0
2019-Jun-09 19:29N 25°47' W 080°10'0 0.0
2019-Jun-09 18:59N 25°47' W 080°10'0 0.0
2019-Jun-09 18:29N 25°47' W 080°10'0 0.0
2019-Jun-09 17:59N 25°47' W 080°10'0 0.0
2019-Jun-09 17:29N 25°47' W 080°10'0 0.0
2019-Jun-09 16:59N 25°47' W 080°10'0 0.0
2019-Jun-09 16:29N 25°47' W 080°10'0 0.0
2019-Jun-09 15:59N 25°47' W 080°10'0 0.0
2019-Jun-09 15:29N 25°47' W 080°10'0 0.0
2019-Jun-09 14:59N 25°47' W 080°10'0 0.0
2019-Jun-09 14:29N 25°47' W 080°10'0 0.0
2019-Jun-09 13:59N 25°47' W 080°10'0 0.0
2019-Jun-09 13:29N 25°47' W 080°10'0 0.0
2019-Jun-09 12:59N 25°47' W 080°10'0 0.0
2019-Jun-09 12:29N 25°47' W 080°10'0 0.0
2019-Jun-09 11:59N 25°47' W 080°10'2849.6
2019-Jun-09 11:25N 25°22' W 079°56'2864.3
2019-Jun-09 10:59N 25°47' W 080°10'0 0.0
2019-Jun-09 10:30N 25°47' W 080°10'1 1.1
2019-Jun-09 10:00N 25°47' W 080°11'3 6.7
2019-Jun-09 09:30N 25°46' W 080°08'612.4
2019-Jun-09 09:00N 25°47' W 080°01'5 9.5
2019-Jun-09 08:30N 25°49' W 079°56'611.4
2019-Jun-09 08:00N 25°52' W 079°50'611.3
2019-Jun-09 07:30N 25°54' W 079°45'611.2
2019-Jun-09 07:00N 25°57' W 079°40'611.3
2019-Jun-09 06:30N 25°60' W 079°34'611.2
2019-Jun-09 06:00N 26°03' W 079°29'611.3
2019-Jun-09 05:30N 26°06' W 079°23'611.3
2019-Jun-09 05:00N 26°08' W 079°18'1111.4
2019-Jun-09 04:00N 26°12' W 079°06'611.8
2019-Jun-09 03:29N 26°11' W 078°59'82916.2
2019-Jun-07 00:11N 19°47' W 065°41'2920.8
2019-Jun-06 22:47N 19°31' W 065°15'  

Dump ship's entire track history